Time;durP1;ratioP1;P1;durP2;ratioP2;P2;SDS_P1;SDS_P2;PMS_P1;PMS_P2;Temp;Humidity;BMP_temperature;BMP_pressure;BME280_temperature;BME280_humidity;BME280_pressure;Samples;Min_cycle;Max_cycle;Signal;HPM_P1;HPM_P2
2021/03/03 00:01:34;;;;;;;7.90;4.47;;;5.50;86.00;;;;;;4892626;29;20048;-73
2021/03/03 00:04:01;;;;;;;8.97;4.20;;;5.50;86.10;;;;;;4899224;29;20060;-72
2021/03/03 00:06:27;;;;;;;7.47;4.30;;;5.40;86.10;;;;;;4877483;29;20119;-72
2021/03/03 00:08:54;;;;;;;6.87;3.50;;;5.40;86.10;;;;;;4899312;29;20043;-72
2021/03/03 00:11:21;;;;;;;6.90;3.73;;;5.40;86.20;;;;;;4897857;29;20116;-75
2021/03/03 00:13:47;;;;;;;7.43;4.07;;;5.40;86.20;;;;;;4876136;29;20428;-75
2021/03/03 00:16:14;;;;;;;8.60;4.37;;;5.40;86.30;;;;;;4898631;29;20503;-75
2021/03/03 00:18:40;;;;;;;7.80;3.53;;;5.30;86.20;;;;;;4897261;29;20041;-75
2021/03/03 00:21:07;;;;;;;8.63;3.63;;;5.30;86.20;;;;;;4897547;29;20045;-72
2021/03/03 00:23:34;;;;;;;7.70;4.17;;;5.30;86.20;;;;;;4897221;29;20487;-72
2021/03/03 00:26:00;;;;;;;8.97;5.17;;;5.30;86.30;;;;;;4897456;29;20055;-72
2021/03/03 00:28:27;;;;;;;8.23;4.03;;;5.30;86.30;;;;;;4893154;29;20492;-72
2021/03/03 00:30:53;;;;;;;7.73;4.00;;;5.20;86.30;;;;;;4895846;29;20053;-72
2021/03/03 00:33:20;;;;;;;7.60;3.63;;;5.30;86.40;;;;;;4897089;29;20123;-75
2021/03/03 00:35:47;;;;;;;8.67;4.43;;;5.30;86.40;;;;;;4895745;29;20033;-75
2021/03/03 00:38:13;;;;;;;8.37;4.40;;;5.20;86.30;;;;;;4882190;29;20112;-74
2021/03/03 00:40:40;;;;;;;8.67;4.03;;;5.20;86.40;;;;;;4892474;29;20043;-75
2021/03/03 00:43:07;;;;;;;9.47;4.87;;;5.20;86.30;;;;;;4896348;29;20048;-75
2021/03/03 00:45:34;;;;;;;9.07;4.97;;;5.20;86.40;;;;;;4881919;29;20060;-75
2021/03/03 00:48:00;;;;;;;8.83;4.60;;;5.20;86.50;;;;;;4897548;29;20100;-75
2021/03/03 00:50:28;;;;;;;8.20;4.20;;;5.10;86.40;;;;;;4897668;29;20063;-76
2021/03/03 00:52:57;;;;;;;8.73;3.90;;;5.10;86.40;;;;;;4897551;29;20461;-75
2021/03/03 00:55:27;;;;;;;7.73;4.07;;;5.10;86.50;;;;;;4882610;29;20044;-75
2021/03/03 00:57:55;;;;;;;8.23;3.57;;;5.10;86.50;;;;;;4896793;29;21631;-76
2021/03/03 01:00:40;;;;;;;10.37;5.20;;;5.10;86.50;;;;;;4884214;29;20044;-75
2021/03/03 01:03:08;;;;;;;7.13;3.97;;;5.10;86.60;;;;;;4881986;29;20061;-75
2021/03/03 01:05:42;;;;;;;9.17;4.03;;;5.10;86.60;;;;;;4897046;29;20079;-75
2021/03/03 01:08:10;;;;;;;8.45;4.28;;;5.00;86.60;;;;;;4898048;29;20045;-75
2021/03/03 01:10:40;;;;;;;7.80;3.93;;;5.00;86.70;;;;;;4897172;29;20096;-75
2021/03/03 01:13:08;;;;;;;6.97;3.40;;;5.00;86.70;;;;;;4881729;29;20053;-75
2021/03/03 01:15:36;;;;;;;8.87;3.93;;;5.00;86.80;;;;;;4896366;29;20043;-72
2021/03/03 01:18:09;;;;;;;6.87;3.80;;;5.00;86.80;;;;;;4891680;29;20088;-72
2021/03/03 01:20:36;;;;;;;7.90;4.10;;;5.00;86.80;;;;;;4898157;29;20076;-72
2021/03/03 01:23:07;;;;;;;8.30;4.63;;;5.00;86.80;;;;;;4880885;29;20048;-72
2021/03/03 01:25:34;;;;;;;7.90;4.03;;;5.00;86.80;;;;;;4896053;29;20083;-72
2021/03/03 01:28:01;;;;;;;7.33;3.37;;;4.90;86.80;;;;;;4896252;29;20405;-72
2021/03/03 01:30:27;;;;;;;7.20;3.83;;;4.90;86.90;;;;;;4897306;29;20056;-72
2021/03/03 01:32:54;;;;;;;7.77;4.20;;;4.90;86.90;;;;;;4896674;29;20044;-72
2021/03/03 01:35:20;;;;;;;7.83;3.47;;;4.90;86.90;;;;;;4879705;29;20048;-72
2021/03/03 01:37:47;;;;;;;7.43;3.70;;;4.80;86.90;;;;;;4880978;29;20053;-72
2021/03/03 01:40:14;;;;;;;8.27;4.00;;;4.80;87.00;;;;;;4880400;29;20071;-72
2021/03/03 01:42:41;;;;;;;5.97;3.80;;;4.80;87.00;;;;;;4896879;29;20052;-72
2021/03/03 01:45:08;;;;;;;7.47;3.43;;;4.80;87.00;;;;;;4896276;29;20048;-72
2021/03/03 01:47:35;;;;;;;7.60;3.43;;;4.80;87.00;;;;;;4880344;29;20063;-72
2021/03/03 01:50:10;;;;;;;8.67;4.17;;;4.80;87.00;;;;;;4871474;29;20052;-72
2021/03/03 01:52:40;;;;;;;6.17;3.03;;;4.80;87.00;;;;;;4897177;29;20052;-72
2021/03/03 01:55:07;;;;;;;6.63;3.67;;;4.80;87.10;;;;;;4895803;29;20100;-72
2021/03/03 01:57:35;;;;;;;7.83;4.17;;;4.80;87.10;;;;;;4880517;29;20044;-72
2021/03/03 02:00:04;;;;;;;7.23;3.60;;;4.70;87.10;;;;;;4895607;29;20076;-72
2021/03/03 02:02:37;;;;;;;7.03;3.43;;;4.70;87.10;;;;;;4896702;29;20505;-72
2021/03/03 02:05:05;;;;;;;7.17;3.47;;;4.70;87.10;;;;;;4897178;29;20083;-72
2021/03/03 02:07:50;;;;;;;7.33;3.60;;;4.70;87.10;;;;;;4895270;29;20063;-72
2021/03/03 02:10:30;;;;;;;7.47;3.67;;;4.70;87.10;;;;;;4895701;29;20103;-72
2021/03/03 02:13:32;;;;;;;5.77;3.10;;;4.70;87.20;;;;;;4896663;29;20033;-72
2021/03/03 02:16:01;;;;;;;8.10;3.63;;;4.70;87.20;;;;;;4882573;29;20044;-72
2021/03/03 02:18:30;;;;;;;8.37;4.13;;;4.60;87.10;;;;;;4896848;29;20055;-72
2021/03/03 02:21:07;;;;;;;8.83;3.43;;;4.70;87.20;;;;;;4894097;29;20064;-72
2021/03/03 02:23:57;;;;;;;7.80;3.20;;;4.60;87.10;;;;;;4895278;29;20040;-72
2021/03/03 02:26:34;;;;;;;6.53;3.70;;;4.60;87.20;;;;;;4895682;29;20045;-72
2021/03/03 02:29:13;;;;;;;7.30;3.40;;;4.60;87.30;;;;;;4894723;29;20064;-72
2021/03/03 02:31:42;;;;;;;7.53;3.50;;;4.60;87.30;;;;;;4896479;29;20045;-72
2021/03/03 02:34:12;;;;;;;6.20;3.40;;;4.50;87.30;;;;;;4894951;29;20048;-72
2021/03/03 02:36:40;;;;;;;9.00;4.43;;;4.50;87.40;;;;;;4894996;29;20044;-72
2021/03/03 02:39:06;;;;;;;8.60;3.73;;;4.50;87.40;;;;;;4894180;29;20544;-72
2021/03/03 02:41:34;;;;;;;6.63;3.23;;;4.50;87.40;;;;;;4895474;29;20144;-72
2021/03/03 02:44:03;;;;;;;7.27;3.60;;;4.50;87.50;;;;;;4896394;29;20040;-72
2021/03/03 02:46:32;;;;;;;7.30;3.53;;;4.50;87.40;;;;;;4896796;29;20044;-72
2021/03/03 02:49:01;;;;;;;7.43;4.13;;;4.50;87.50;;;;;;4895480;29;20048;-72
2021/03/03 02:51:27;;;;;;;6.83;3.57;;;4.50;87.50;;;;;;4895264;29;20446;-72
2021/03/03 02:53:54;;;;;;;7.47;3.80;;;4.40;87.50;;;;;;4894475;29;20123;-72
2021/03/03 02:56:20;;;;;;;7.37;3.97;;;4.40;87.50;;;;;;4895282;29;20040;-72
2021/03/03 02:58:48;;;;;;;6.10;3.03;;;4.40;87.50;;;;;;4895420;29;20065;-72
2021/03/03 03:01:17;;;;;;;7.27;3.90;;;4.40;87.60;;;;;;4894891;29;20100;-72
2021/03/03 03:04:01;;;;;;;8.30;3.33;;;4.40;87.60;;;;;;4896476;29;20053;-72
2021/03/03 03:06:31;;;;;;;7.00;3.90;;;4.40;87.60;;;;;;4880245;29;20676;-72
2021/03/03 03:09:11;;;;;;;6.60;3.63;;;4.30;87.60;;;;;;4883400;29;20054;-72
2021/03/03 03:11:50;;;;;;;8.97;3.57;;;4.30;87.60;;;;;;4903602;29;20064;-72
2021/03/03 03:14:27;;;;;;;7.27;3.73;;;4.30;87.60;;;;;;4895178;29;20040;-72
2021/03/03 03:16:59;;;;;;;7.20;3.33;;;4.30;87.60;;;;;;4898049;29;20040;-72
2021/03/03 03:19:34;;;;;;;8.17;3.37;;;4.30;87.70;;;;;;4898492;29;20073;-72
2021/03/03 03:22:02;;;;;;;8.83;4.60;;;4.20;87.70;;;;;;4897321;29;20063;-72
2021/03/03 03:24:30;;;;;;;8.07;3.40;;;4.20;87.70;;;;;;4900100;29;20091;-72
2021/03/03 03:26:57;;;;;;;8.20;3.83;;;4.20;87.70;;;;;;4882981;29;20096;-72
2021/03/03 03:29:24;;;;;;;6.57;3.07;;;4.20;87.70;;;;;;4906925;29;20139;-72
2021/03/03 03:31:51;;;;;;;6.47;2.93;;;4.20;87.70;;;;;;4898736;29;20056;-72
2021/03/03 03:34:19;;;;;;;6.47;2.90;;;4.20;87.70;;;;;;4898130;29;20561;-72
2021/03/03 03:36:46;;;;;;;7.73;3.90;;;4.20;87.70;;;;;;4898317;29;20504;-72
2021/03/03 03:39:14;;;;;;;9.00;4.57;;;4.20;87.80;;;;;;4898523;29;20052;-72
2021/03/03 03:41:42;;;;;;;6.30;3.23;;;4.20;87.70;;;;;;4897776;29;20041;-72
2021/03/03 03:44:12;;;;;;;6.80;3.47;;;4.20;87.70;;;;;;4899970;29;20131;-72
2021/03/03 03:46:40;;;;;;;8.53;3.90;;;4.20;87.70;;;;;;4897648;29;20052;-72
2021/03/03 03:49:08;;;;;;;8.57;4.43;;;4.10;87.70;;;;;;4899722;29;20350;-72
2021/03/03 03:51:35;;;;;;;7.20;3.37;;;4.10;87.70;;;;;;4898601;29;20056;-72
2021/03/03 03:54:01;;;;;;;6.53;3.30;;;4.10;87.80;;;;;;4898378;29;20128;-72
2021/03/03 03:56:28;;;;;;;7.40;3.60;;;4.10;87.80;;;;;;4897601;29;20057;-72
2021/03/03 03:58:54;;;;;;;8.27;3.50;;;4.10;87.80;;;;;;4897786;29;20138;-72
2021/03/03 04:01:21;;;;;;;6.30;3.00;;;4.10;87.80;;;;;;4866985;29;20104;-72
2021/03/03 04:03:47;;;;;;;8.40;4.37;;;4.10;87.80;;;;;;4899446;29;20123;-72
2021/03/03 04:06:14;;;;;;;8.70;3.60;;;4.00;87.80;;;;;;4897833;29;20044;-72
2021/03/03 04:08:40;;;;;;;7.40;3.37;;;4.10;87.90;;;;;;4882811;29;20088;-72
2021/03/03 04:11:07;;;;;;;7.33;3.47;;;4.00;87.80;;;;;;4898655;29;20116;-72
2021/03/03 04:13:34;;;;;;;6.30;3.40;;;4.00;87.80;;;;;;4873645;29;20052;-72
2021/03/03 04:16:00;;;;;;;8.10;3.23;;;4.00;87.80;;;;;;4897013;29;20044;-75
2021/03/03 04:18:27;;;;;;;7.13;3.20;;;4.00;87.90;;;;;;4899586;29;20044;-75
2021/03/03 04:20:54;;;;;;;6.70;3.57;;;4.10;87.90;;;;;;4898548;29;20048;-75
2021/03/03 04:23:21;;;;;;;8.87;4.37;;;4.00;87.80;;;;;;4899483;29;20119;-75
2021/03/03 04:25:47;;;;;;;8.27;3.63;;;4.00;87.80;;;;;;4882833;29;20083;-75
2021/03/03 04:28:14;;;;;;;6.77;3.00;;;4.00;87.80;;;;;;4882598;29;20390;-75
2021/03/03 04:30:40;;;;;;;6.63;3.90;;;4.00;87.80;;;;;;4899472;29;20048;-75
2021/03/03 04:33:09;;;;;;;7.70;3.57;;;4.00;87.80;;;;;;4881646;29;20074;-75
2021/03/03 04:35:36;;;;;;;8.27;3.97;;;4.00;87.80;;;;;;4898258;29;20075;-75
2021/03/03 04:38:03;;;;;;;6.23;3.20;;;4.00;87.80;;;;;;4898763;29;20060;-75
2021/03/03 04:40:30;;;;;;;7.63;3.57;;;4.00;87.90;;;;;;4897510;29;20041;-75
2021/03/03 04:42:57;;;;;;;7.20;2.90;;;4.00;87.80;;;;;;4882419;29;20049;-75
2021/03/03 04:45:23;;;;;;;6.73;3.03;;;4.00;87.90;;;;;;4896915;29;20052;-75
2021/03/03 04:47:53;;;;;;;7.77;3.27;;;4.00;87.90;;;;;;4899014;29;20481;-72
2021/03/03 04:50:20;;;;;;;7.90;3.23;;;4.00;87.90;;;;;;4897273;29;20475;-72
2021/03/03 04:52:47;;;;;;;8.37;4.03;;;4.00;88.50;;;;;;4897536;29;20500;-75
2021/03/03 04:55:14;;;;;;;7.80;3.37;;;4.00;87.90;;;;;;4897622;29;20032;-74
2021/03/03 04:57:40;;;;;;;7.23;3.73;;;4.00;87.90;;;;;;4897146;29;20063;-72
2021/03/03 05:00:08;;;;;;;7.53;3.57;;;4.00;87.90;;;;;;4896996;29;20048;-72
2021/03/03 05:02:34;;;;;;;7.77;3.70;;;4.00;87.90;;;;;;4881631;29;20048;-72
2021/03/03 05:05:01;;;;;;;8.67;3.60;;;4.00;87.90;;;;;;4897944;29;20087;-72
2021/03/03 05:07:27;;;;;;;6.63;3.70;;;4.00;88.00;;;;;;4897083;29;20056;-72
2021/03/03 05:09:54;;;;;;;9.20;3.70;;;4.00;87.90;;;;;;4896942;29;20040;-72
2021/03/03 05:12:20;;;;;;;8.33;3.50;;;4.10;87.90;;;;;;4897329;29;20083;-72
2021/03/03 05:14:47;;;;;;;8.10;4.00;;;4.10;87.90;;;;;;4896971;29;20453;-72
2021/03/03 05:17:14;;;;;;;7.93;4.00;;;4.10;87.90;;;;;;4897659;29;20492;-72
2021/03/03 05:19:45;;;;;;;8.70;4.18;;;4.10;87.90;;;;;;4882215;29;20062;-72
2021/03/03 05:22:13;;;;;;;9.60;4.63;;;4.10;87.90;;;;;;4880616;29;20115;-72
2021/03/03 05:24:39;;;;;;;7.30;3.53;;;4.10;88.00;;;;;;4880975;29;20068;-72
2021/03/03 05:27:05;;;;;;;7.33;3.80;;;4.10;87.90;;;;;;4896634;29;20112;-72
2021/03/03 05:29:32;;;;;;;7.00;3.50;;;4.10;88.00;;;;;;4896113;29;20049;-72
2021/03/03 05:31:59;;;;;;;6.33;3.53;;;4.10;88.00;;;;;;4895633;29;20179;-72
2021/03/03 05:34:26;;;;;;;7.30;3.40;;;4.10;88.00;;;;;;4880454;29;20127;-72
2021/03/03 05:36:58;;;;;;;7.90;3.07;;;4.00;87.90;;;;;;4897284;29;20044;-75
2021/03/03 05:39:24;;;;;;;7.60;3.17;;;4.00;88.00;;;;;;4897563;29;20045;-75
2021/03/03 05:41:51;;;;;;;6.43;2.40;;;4.00;88.00;;;;;;4896805;29;20112;-75
2021/03/03 05:44:18;;;;;;;7.00;3.13;;;4.00;88.00;;;;;;4881562;29;20108;-75
2021/03/03 05:46:46;;;;;;;7.20;3.03;;;4.00;88.10;;;;;;4897871;29;20048;-75
2021/03/03 05:49:19;;;;;;;6.50;3.30;;;4.00;88.10;;;;;;4896507;29;20151;-75
2021/03/03 05:51:47;;;;;;;6.43;3.22;;;4.00;88.10;;;;;;4897898;29;20061;-75
2021/03/03 05:54:15;;;;;;;7.07;3.07;;;4.00;88.20;;;;;;4896083;29;20461;-75
2021/03/03 05:56:43;;;;;;;5.73;2.87;;;4.00;88.10;;;;;;4897414;29;20132;-75
2021/03/03 05:59:11;;;;;;;5.47;3.03;;;4.00;88.20;;;;;;4880358;29;20048;-75
2021/03/03 06:01:39;;;;;;;6.77;3.50;;;3.90;88.10;;;;;;4896376;29;20044;-75
2021/03/03 06:04:19;;;;;;;6.83;3.43;;;3.90;88.20;;;;;;4896515;29;20448;-72
2021/03/03 06:06:46;;;;;;;6.63;3.30;;;3.90;88.20;;;;;;4880744;29;20080;-72
2021/03/03 06:09:12;;;;;;;6.43;2.93;;;3.90;88.30;;;;;;4897085;29;20386;-72
2021/03/03 06:11:39;;;;;;;7.53;3.27;;;3.90;88.30;;;;;;4880029;29;20507;-72
2021/03/03 06:14:06;;;;;;;6.30;2.97;;;3.90;88.30;;;;;;4895617;29;20043;-72
2021/03/03 06:16:32;;;;;;;6.10;2.80;;;3.90;88.20;;;;;;4895190;29;20051;-72
2021/03/03 06:18:59;;;;;;;6.50;3.50;;;3.90;88.20;;;;;;4895731;29;20052;-72
2021/03/03 06:21:28;;;;;;;6.17;2.93;;;3.90;88.20;;;;;;4895689;29;20048;-72
2021/03/03 06:24:05;;;;;;;7.20;3.33;;;3.90;88.20;;;;;;4895515;29;20052;-72
2021/03/03 06:26:34;;;;;;;7.73;3.07;;;3.90;88.30;;;;;;4884700;29;20052;-72
2021/03/03 06:29:12;;;;;;;7.30;3.60;;;3.90;88.30;;;;;;4896986;29;20100;-75
2021/03/03 06:31:39;;;;;;;7.00;3.73;;;4.00;88.30;;;;;;4898375;29;20067;-75
2021/03/03 06:34:18;;;;;;;7.03;3.27;;;4.00;88.30;;;;;;4895595;29;20127;-75
2021/03/03 06:36:48;;;;;;;5.87;2.63;;;4.00;88.30;;;;;;4892354;29;21822;-75
2021/03/03 06:39:19;;;;;;;7.77;3.43;;;4.00;88.30;;;;;;4897217;29;20097;-75
2021/03/03 06:41:46;;;;;;;5.23;2.70;;;4.00;88.20;;;;;;4896135;29;20041;-75
2021/03/03 06:44:13;;;;;;;6.00;2.90;;;4.00;88.20;;;;;;4897321;29;20119;-75
2021/03/03 06:46:39;;;;;;;5.23;2.87;;;4.10;88.20;;;;;;4894714;29;20147;-75
2021/03/03 06:49:21;;;;;;;6.40;2.80;;;4.10;88.20;;;;;;4895199;29;20412;-75
2021/03/03 06:51:49;;;;;;;5.77;3.00;;;4.10;88.10;;;;;;4896683;29;20758;-75
2021/03/03 06:54:21;;;;;;;6.57;3.23;;;4.10;88.10;;;;;;4896264;29;20080;-75
2021/03/03 06:56:49;;;;;;;6.10;2.80;;;4.10;88.10;;;;;;4900639;29;20093;-75
2021/03/03 06:59:27;;;;;;;6.97;3.50;;;4.20;88.20;;;;;;4897907;29;20064;-72
2021/03/03 07:02:07;;;;;;;6.73;3.17;;;4.20;88.10;;;;;;4894831;29;20040;-72
2021/03/03 07:04:36;;;;;;;6.87;2.90;;;4.20;88.10;;;;;;4888140;29;20044;-72
2021/03/03 07:07:18;;;;;;;5.50;2.97;;;4.30;88.10;;;;;;4896825;29;20108;-72
2021/03/03 07:09:59;;;;;;;7.47;3.50;;;4.30;88.00;;;;;;4895548;29;20136;-72
2021/03/03 07:12:30;;;;;;;8.23;3.00;;;4.40;88.00;;;;;;4895148;29;20444;-75
2021/03/03 07:15:03;;;;;;;6.70;3.40;;;4.40;87.90;;;;;;4895452;29;20063;-72
2021/03/03 07:17:37;;;;;;;5.25;2.60;;;4.40;87.90;;;;;;4887954;29;20290;-72
2021/03/03 07:20:07;;;;;;;6.43;2.73;;;4.50;87.90;;;;;;4879432;29;20060;-73
2021/03/03 07:22:35;;;;;;;5.80;2.60;;;4.50;87.90;;;;;;4893829;29;20037;-73
2021/03/03 07:25:05;;;;;;;6.20;2.80;;;4.60;87.90;;;;;;4894753;29;20045;-72
2021/03/03 07:27:33;;;;;;;6.50;2.97;;;4.70;87.80;;;;;;4895789;29;20051;-72
2021/03/03 07:30:04;;;;;;;7.03;3.30;;;4.70;87.70;;;;;;4894399;29;20041;-72
2021/03/03 07:32:31;;;;;;;6.80;3.40;;;4.80;87.70;;;;;;4894712;29;20135;-72
2021/03/03 07:35:02;;;;;;;5.87;2.37;;;4.90;87.50;;;;;;4894163;29;20041;-72
2021/03/03 07:37:33;;;;;;;7.13;3.37;;;5.10;87.50;;;;;;4895347;29;20499;-72
2021/03/03 07:40:07;;;;;;;5.17;2.80;;;5.20;87.40;;;;;;4896206;29;20055;-74
2021/03/03 07:42:35;;;;;;;5.87;2.70;;;5.30;87.30;;;;;;4895376;29;20040;-74
2021/03/03 07:45:14;;;;;;;6.60;3.13;;;5.40;87.20;;;;;;4879847;29;20052;-75
2021/03/03 07:47:42;;;;;;;5.03;2.50;;;5.50;87.10;;;;;;4879839;29;20057;-75
2021/03/03 07:50:10;;;;;;;7.13;2.93;;;5.60;87.00;;;;;;4894900;29;20060;-75
2021/03/03 07:52:44;;;;;;;6.93;2.93;;;5.70;86.90;;;;;;4877439;29;20061;-75
2021/03/03 07:55:11;;;;;;;7.33;3.27;;;5.80;86.80;;;;;;4894806;29;20040;-75
2021/03/03 07:57:47;;;;;;;6.73;3.80;;;6.00;86.70;;;;;;4898689;29;20103;-75
2021/03/03 08:00:26;;;;;;;10.33;5.53;;;6.20;86.50;;;;;;4898806;29;20055;-75
2021/03/03 08:02:55;;;;;;;10.50;6.43;;;6.30;86.30;;;;;;4899433;29;20101;-72
2021/03/03 08:05:29;;;;;;;12.33;6.07;;;6.50;86.10;;;;;;4898906;29;20036;-72
2021/03/03 08:08:25;;;;;;;12.20;7.27;;;6.70;85.90;;;;;;4882953;29;20056;-75
2021/03/03 08:10:59;;;;;;;12.43;6.47;;;6.80;85.70;;;;;;4898729;29;20048;-75
2021/03/03 08:13:28;;;;;;;14.80;8.40;;;7.00;85.60;;;;;;4898563;29;20460;-75
2021/03/03 08:15:59;;;;;;;13.93;8.13;;;7.00;85.40;;;;;;4899583;29;20040;-75
2021/03/03 08:18:31;;;;;;;16.60;9.37;;;7.20;85.40;;;;;;4890285;29;20053;-72
2021/03/03 08:21:00;;;;;;;15.43;9.75;;;7.30;85.30;;;;;;4896212;29;21454;-72
2021/03/03 08:23:37;;;;;;;15.40;9.60;;;7.30;85.20;;;;;;4891425;29;20563;-72
2021/03/03 08:26:17;;;;;;;17.17;9.70;;;7.40;85.10;;;;;;4897711;29;20053;-72
2021/03/03 08:28:47;;;;;;;18.63;10.17;;;7.50;85.10;;;;;;4895338;29;20040;-72
2021/03/03 08:31:17;;;;;;;17.50;9.90;;;7.60;85.10;;;;;;4877576;29;20063;-72
2021/03/03 08:33:54;;;;;;;20.83;11.73;;;7.60;85.00;;;;;;4887230;29;20040;-72
2021/03/03 08:36:21;;;;;;;23.07;13.10;;;7.70;85.00;;;;;;4898926;29;20043;-75
2021/03/03 08:39:10;;;;;;;24.03;13.90;;;7.70;84.80;;;;;;4897651;29;20048;-75
2021/03/03 08:41:38;;;;;;;27.33;14.37;;;7.80;84.80;;;;;;4893353;29;20097;-75
2021/03/03 08:44:18;;;;;;;24.70;14.00;;;7.80;84.80;;;;;;4898802;29;20051;-75
2021/03/03 08:46:47;;;;;;;19.73;12.97;;;7.80;84.80;;;;;;4895243;29;20052;-75
2021/03/03 08:49:20;;;;;;;27.73;15.23;;;7.80;84.80;;;;;;4899496;29;20048;-76
2021/03/03 08:51:49;;;;;;;23.03;14.87;;;7.80;84.90;;;;;;4898617;29;20048;-75
2021/03/03 08:54:21;;;;;;;23.13;15.37;;;7.80;84.80;;;;;;4896025;29;20115;-75
2021/03/03 08:56:52;;;;;;;24.53;13.97;;;7.90;85.00;;;;;;4891644;29;20044;-75
2021/03/03 08:59:28;;;;;;;24.77;14.30;;;7.90;84.90;;;;;;4885750;29;20036;-77
2021/03/03 09:02:17;;;;;;;19.03;12.57;;;7.90;84.90;;;;;;4898558;29;20048;-75
2021/03/03 09:04:51;;;;;;;21.00;12.63;;;7.90;84.90;;;;;;4897428;29;20075;-76
2021/03/03 09:07:22;;;;;;;26.10;16.33;;;8.00;84.90;;;;;;4894997;29;20457;-75
2021/03/03 09:10:05;;;;;;;31.13;17.40;;;8.00;85.10;;;;;;4878693;29;20057;-76
2021/03/03 09:12:36;;;;;;;23.90;14.43;;;8.10;84.80;;;;;;4896330;29;20048;-72
2021/03/03 09:15:05;;;;;;;22.17;14.47;;;8.00;84.80;;;;;;4896368;29;20041;-72
2021/03/03 09:17:34;;;;;;;24.60;13.97;;;8.10;84.90;;;;;;4895560;29;20076;-76
2021/03/03 09:20:10;;;;;;;22.33;13.73;;;8.10;84.80;;;;;;4897684;29;20043;-78
2021/03/03 09:22:42;;;;;;;23.53;13.37;;;8.10;84.70;;;;;;4899544;29;20438;-76
2021/03/03 09:25:11;;;;;;;24.30;13.80;;;8.20;84.70;;;;;;4890386;29;20809;-76
2021/03/03 09:27:50;;;;;;;18.97;12.47;;;8.30;84.70;;;;;;4878532;29;20044;-76
2021/03/03 09:30:18;;;;;;;18.37;12.00;;;8.40;84.60;;;;;;4897425;29;20398;-75
2021/03/03 09:32:46;;;;;;;16.40;11.07;;;8.50;84.60;;;;;;4899189;29;20398;-76
2021/03/03 09:35:14;;;;;;;18.97;10.90;;;8.50;84.50;;;;;;4897521;29;20070;-76
2021/03/03 09:37:49;;;;;;;15.53;9.50;;;8.60;84.40;;;;;;4896916;29;20400;-77
2021/03/03 09:40:17;;;;;;;20.00;11.77;;;8.80;84.40;;;;;;4897573;29;20052;-78
2021/03/03 09:42:48;;;;;;;18.40;10.73;;;8.80;84.10;;;;;;4898097;29;20055;-79
2021/03/03 09:45:23;;;;;;;16.13;10.40;;;8.90;84.20;;;;;;4897826;29;20051;-79
2021/03/03 09:47:51;;;;;;;17.87;10.80;;;9.00;84.10;;;;;;4898749;29;20044;-78
2021/03/03 09:50:24;;;;;;;20.13;11.57;;;9.10;84.50;;;;;;4861531;29;20053;-75
2021/03/03 09:52:52;;;;;;;23.13;12.50;;;9.20;83.90;;;;;;4892043;29;20051;-76
2021/03/03 09:55:24;;;;;;;22.57;15.30;;;9.20;83.70;;;;;;4910109;29;20104;-74
2021/03/03 09:57:51;;;;;;;21.73;14.47;;;9.30;83.60;;;;;;4899315;29;20048;-72
2021/03/03 10:00:21;;;;;;;20.50;12.32;;;9.30;83.60;;;;;;4897122;29;20053;-73
2021/03/03 10:03:08;;;;;;;20.65;12.73;;;9.40;83.70;;;;;;4876328;29;20052;-72
2021/03/03 10:05:36;;;;;;;16.40;11.10;;;9.40;83.60;;;;;;4870867;29;20056;-73
2021/03/03 10:08:08;;;;;;;17.10;10.32;;;9.50;83.60;;;;;;4895535;29;20063;-72
2021/03/03 10:10:37;;;;;;;16.50;9.73;;;9.60;83.50;;;;;;4906862;29;20084;-72
2021/03/03 10:13:05;;;;;;;15.73;10.23;;;9.70;83.40;;;;;;4880476;29;20389;-72
2021/03/03 10:15:36;;;;;;;17.73;10.55;;;9.80;83.20;;;;;;4849448;29;20036;-72
2021/03/03 10:18:12;;;;;;;16.77;10.73;;;9.90;83.20;;;;;;4895471;29;20033;-72
2021/03/03 10:21:05;;;;;;;20.20;12.48;;;10.00;83.10;;;;;;4896689;29;20486;-72
2021/03/03 10:23:33;;;;;;;25.90;15.93;;;10.10;82.70;;;;;;4891128;29;20052;-72
2021/03/03 10:26:05;;;;;;;22.70;14.73;;;10.10;82.60;;;;;;4895454;29;20048;-72
2021/03/03 10:28:32;;;;;;;27.20;15.70;;;10.20;82.50;;;;;;4896806;29;20048;-73
2021/03/03 10:31:04;;;;;;;27.73;16.33;;;10.30;82.50;;;;;;4894746;29;20496;-74
2021/03/03 10:33:33;;;;;;;25.38;16.30;;;10.30;82.30;;;;;;4879520;29;20112;-74
2021/03/03 10:36:21;;;;;;;22.83;15.10;;;10.40;82.20;;;;;;4892351;29;20048;-73
2021/03/03 10:38:53;;;;;;;22.27;14.73;;;10.50;82.20;;;;;;4880019;29;20405;-73
2021/03/03 10:41:37;;;;;;;23.90;14.57;;;10.70;82.20;;;;;;4895870;29;20430;-74
2021/03/03 10:44:06;;;;;;;23.73;14.38;;;10.80;82.00;;;;;;4895753;29;20052;-72
2021/03/03 10:46:42;;;;;;;23.92;16.33;;;10.90;81.70;;;;;;4895309;29;20059;-72
2021/03/03 10:49:15;;;;;;;27.20;17.65;;;11.00;81.50;;;;;;4889162;29;20053;-73
2021/03/03 10:51:42;;;;;;;30.83;19.95;;;11.10;81.30;;;;;;4880389;29;20105;-73
2021/03/03 10:54:12;;;;;;;34.55;21.13;;;11.10;81.10;;;;;;4890632;29;20064;-77
2021/03/03 10:56:41;;;;;;;33.97;21.13;;;11.30;80.90;;;;;;4895639;29;20405;-74
2021/03/03 10:59:09;;;;;;;32.92;20.58;;;11.30;80.80;;;;;;4877938;29;20085;-73
2021/03/03 11:01:50;;;;;;;33.38;20.60;;;11.40;80.70;;;;;;4894274;29;20068;-73
2021/03/03 11:04:17;;;;;;;28.45;18.40;;;11.60;80.50;;;;;;4879885;29;20085;-73
2021/03/03 11:06:43;;;;;;;23.98;16.73;;;11.60;80.40;;;;;;4895381;29;20163;-73
2021/03/03 11:09:15;;;;;;;26.35;17.58;;;11.80;80.40;;;;;;4896455;29;20044;-73
2021/03/03 11:11:55;;;;;;;33.90;20.48;;;11.90;80.10;;;;;;4895251;29;20052;-73
2021/03/03 11:14:23;;;;;;;32.42;19.05;;;12.10;79.70;;;;;;4895036;29;20087;-73
2021/03/03 11:16:55;;;;;;;26.63;17.88;;;12.10;79.50;;;;;;4891789;29;20045;-73
2021/03/03 11:19:23;;;;;;;26.45;17.67;;;12.20;79.60;;;;;;4894898;29;20040;-73
2021/03/03 11:21:51;;;;;;;28.33;19.77;;;12.30;79.30;;;;;;4903688;29;20033;-73
2021/03/03 11:24:19;;;;;;;32.92;19.52;;;12.40;79.20;;;;;;4910532;29;20419;-73
2021/03/03 11:26:46;;;;;;;30.80;18.45;;;12.40;79.10;;;;;;4894709;29;20044;-73
2021/03/03 11:29:14;;;;;;;36.15;22.88;;;12.40;79.20;;;;;;4898308;29;20056;-74
2021/03/03 11:31:42;;;;;;;34.60;22.95;;;12.40;78.90;;;;;;4882355;29;20163;-73
2021/03/03 11:34:10;;;;;;;39.33;23.05;;;12.40;78.80;;;;;;4891139;29;20543;-74
2021/03/03 11:36:37;;;;;;;37.25;25.08;;;12.40;78.80;;;;;;4891311;29;20089;-76
2021/03/03 11:39:05;;;;;;;46.08;28.80;;;12.40;78.60;;;;;;4883380;29;20464;-76
2021/03/03 11:41:32;;;;;;;38.42;24.10;;;12.40;78.30;;;;;;4899959;29;20060;-76
2021/03/03 11:43:59;;;;;;;37.97;24.08;;;12.40;78.50;;;;;;4897074;29;20070;-75
2021/03/03 11:46:26;;;;;;;37.50;24.08;;;12.50;78.50;;;;;;4897154;29;20385;-76
2021/03/03 11:48:53;;;;;;;40.28;27.35;;;12.50;78.40;;;;;;4879493;29;20397;-76
2021/03/03 11:51:19;;;;;;;43.15;29.27;;;12.50;78.10;;;;;;4893410;29;20115;-76
2021/03/03 11:53:54;;;;;;;39.63;26.08;;;12.50;77.90;;;;;;4894445;29;20127;-77
2021/03/03 11:56:20;;;;;;;38.30;26.13;;;12.50;78.10;;;;;;4862328;29;20032;-75
2021/03/03 11:58:47;;;;;;;42.75;26.48;;;12.50;78.00;;;;;;4892629;29;20051;-76
2021/03/03 12:01:13;;;;;;;40.10;25.25;;;12.60;78.00;;;;;;4899657;29;20072;-75
2021/03/03 12:03:40;;;;;;;37.83;22.75;;;12.80;77.90;;;;;;4899655;29;20053;-76
2021/03/03 12:06:07;;;;;;;43.45;26.52;;;12.90;78.00;;;;;;4899699;29;20048;-76
2021/03/03 12:08:49;;;;;;;44.30;29.27;;;12.90;77.60;;;;;;4898992;29;20520;-76
2021/03/03 12:11:16;;;;;;;45.60;30.90;;;13.00;77.30;;;;;;4880643;29;20056;-76
2021/03/03 12:13:42;;;;;;;42.55;28.40;;;13.00;77.00;;;;;;4898481;29;20123;-77
2021/03/03 12:16:09;;;;;;;45.95;28.83;;;13.00;76.80;;;;;;4898103;29;20040;-76
2021/03/03 12:18:35;;;;;;;48.70;31.35;;;13.10;76.80;;;;;;4896401;29;20072;-77
2021/03/03 12:21:03;;;;;;;51.05;33.25;;;13.10;76.50;;;;;;4899419;29;20505;-77
2021/03/03 12:23:30;;;;;;;55.80;36.28;;;13.10;76.10;;;;;;4898129;29;20483;-78
2021/03/03 12:25:56;;;;;;;49.83;32.03;;;13.20;75.70;;;;;;4898011;29;20571;-77
2021/03/03 12:28:23;;;;;;;46.10;30.10;;;13.20;75.90;;;;;;4898328;29;20119;-81
2021/03/03 12:30:49;;;;;;;47.22;30.77;;;13.20;76.00;;;;;;4895916;29;20354;-76
2021/03/03 12:33:16;;;;;;;51.30;30.00;;;13.30;75.70;;;;;;4896602;29;20040;-75
2021/03/03 12:35:43;;;;;;;52.10;31.40;;;13.30;75.90;;;;;;4898069;29;20519;-76
2021/03/03 12:38:10;;;;;;;51.55;34.15;;;13.30;75.70;;;;;;4894064;29;20045;-72
2021/03/03 12:40:37;;;;;;;51.80;32.90;;;13.30;75.30;;;;;;4862655;29;20108;-72
2021/03/03 12:43:04;;;;;;;53.45;34.88;;;13.30;75.10;;;;;;4893751;29;20093;-72
2021/03/03 12:45:30;;;;;;;55.70;35.25;;;13.40;74.90;;;;;;4895002;29;20077;-72
2021/03/03 12:48:15;;;;;;;59.45;33.33;;;13.50;74.60;;;;;;4891717;29;20037;-72
2021/03/03 12:50:42;;;;;;;53.92;34.97;;;13.50;74.50;;;;;;4881882;29;20041;-72
2021/03/03 12:53:08;;;;;;;56.53;36.65;;;13.50;74.30;;;;;;4897374;29;20170;-72
2021/03/03 12:55:35;;;;;;;51.03;33.35;;;13.50;74.00;;;;;;4894500;29;20531;-75
2021/03/03 12:58:02;;;;;;;48.80;30.73;;;13.50;74.10;;;;;;4896996;29;20036;-72
2021/03/03 13:00:29;;;;;;;52.15;33.13;;;13.60;74.30;;;;;;4897155;29;20407;-72
2021/03/03 13:02:55;;;;;;;55.55;33.58;;;13.70;73.90;;;;;;4901959;29;20068;-73